createdAt,value
2022-08-31T00:03:57.621Z,15171.99805
2022-08-31T00:18:59.862Z,15081.99219
2022-08-31T00:34:02.089Z,13782.86719
2022-08-31T00:49:04.327Z,3825.80298
2022-08-31T01:04:06.501Z,959.70398
2022-08-31T01:19:08.844Z,833.91223
2022-08-31T01:34:11.098Z,705.95172
2022-08-31T01:49:13.491Z,586.6665
2022-08-31T02:04:15.699Z,445.69302
2022-08-31T02:19:17.925Z,267.84958
2022-08-31T02:34:20.113Z,104.10349
2022-08-31T02:49:22.357Z,22.77264
2022-08-31T03:04:26.517Z,1.08441
2022-08-31T03:19:28.738Z,0
2022-08-31T03:34:30.919Z,0
2022-08-31T03:49:33.128Z,0
2022-08-31T04:04:35.345Z,0
2022-08-31T04:19:37.570Z,0
2022-08-31T04:34:39.812Z,0
2022-08-31T04:49:42.178Z,0
2022-08-31T05:04:44.379Z,0
2022-08-31T05:19:46.941Z,0
2022-08-31T05:34:49.433Z,0
2022-08-31T05:49:51.648Z,0
2022-08-31T06:04:54.154Z,0
2022-08-31T06:19:56.396Z,0
2022-08-31T06:34:58.598Z,0
2022-08-31T06:50:00.794Z,0
2022-08-31T07:05:03.019Z,0
2022-08-31T07:20:05.194Z,0
2022-08-31T07:35:07.383Z,0
2022-08-31T07:50:09.565Z,0
2022-08-31T08:05:11.784Z,0
2022-08-31T08:20:14.148Z,0
2022-08-31T08:35:16.365Z,0
2022-08-31T08:50:18.539Z,0
2022-08-31T09:05:20.787Z,0
2022-08-31T09:20:22.960Z,0
2022-08-31T09:35:25.149Z,0
2022-08-31T09:50:27.384Z,0
2022-08-31T10:05:30.134Z,0
2022-08-31T10:20:32.369Z,0
2022-08-31T10:35:34.622Z,0
2022-08-31T10:50:36.991Z,0
2022-08-31T11:05:39.195Z,0
2022-08-31T11:20:41.397Z,0
2022-08-31T11:35:43.632Z,0
2022-08-31T11:50:45.835Z,0
2022-08-31T12:05:48.141Z,0
2022-08-31T12:20:50.443Z,0
2022-08-31T12:35:52.628Z,1.08441
2022-08-31T12:50:54.926Z,13.01294
2022-08-31T13:05:57.130Z,84.58408
2022-08-31T13:20:59.329Z,254.83664
2022-08-31T13:36:01.675Z,437.01773
2022-08-31T13:51:03.910Z,599.67944
2022-08-31T14:06:06.161Z,819.81494
2022-08-31T14:21:20.897Z,6569.36328
2022-08-31T14:36:24.059Z,2091.82935
2022-08-31T14:51:26.661Z,6754.79785
2022-08-31T15:06:28.894Z,35434.22266
2022-08-31T15:21:31.066Z,37425.20312
2022-08-31T15:36:33.379Z,14822.81738
2022-08-31T15:51:35.629Z,5247.46631
2022-08-31T16:06:37.855Z,4853.82471
2022-08-31T16:21:40.110Z,5277.82959
2022-08-31T16:36:42.299Z,5329.88135
2022-08-31T16:51:48.443Z,5455.67285
2022-08-31T17:06:50.917Z,5888.35303
2022-08-31T17:21:53.118Z,6221.26758
2022-08-31T17:36:55.295Z,6406.70166
2022-08-31T17:51:57.467Z,6965.17334
2022-08-31T18:07:00.859Z,7798.00146
2022-08-31T18:22:03.053Z,3537.34961
2022-08-31T18:37:05.391Z,3595.90771
2022-08-31T18:52:07.599Z,8442.1416
2022-08-31T19:07:09.829Z,9036.39941
2022-08-31T19:22:12.024Z,7146.27002
2022-08-31T19:37:14.258Z,4659.71533
2022-08-31T19:52:16.454Z,4193.41846
2022-08-31T20:07:18.620Z,7783.90381
2022-08-31T20:22:20.786Z,4224.86621
2022-08-31T20:37:23.044Z,3996.05542
2022-08-31T20:52:25.284Z,4201.00928
2022-08-31T21:07:27.479Z,3358.42163
2022-08-31T21:22:29.793Z,6218.01416
2022-08-31T21:37:32.118Z,5386.27051
2022-08-31T21:52:34.545Z,2722.95679
2022-08-31T22:07:36.769Z,2538.60669
2022-08-31T22:22:40.593Z,7101.80957
2022-08-31T22:37:42.903Z,4626.09863
2022-08-31T22:52:45.178Z,10366.97168
2022-08-31T23:07:47.414Z,12158.41895
2022-08-31T23:22:49.667Z,12338.43164
2022-08-31T23:37:51.889Z,12588.93066
2022-08-31T23:52:54.260Z,13481.40039
